Time;durP1;ratioP1;P1;durP2;ratioP2;P2;SDS_P1;SDS_P2;PMS_P1;PMS_P2;Temp;Humidity;BMP_temperature;BMP_pressure;BME280_temperature;BME280_humidity;BME280_pressure;Samples;Min_cycle;Max_cycle;Signal;HPM_P1;HPM_P2
2022/09/03 00:02:26;;;;;;;;;;;16.10;82.80;;;;;;4993635;28;19929;-70
2022/09/03 00:04:52;;;;;;;;;;;16.10;82.80;;;;;;5008772;28;19921;-70
2022/09/03 00:07:25;;;;;;;;;;;16.10;86.90;;;;;;5001387;28;19925;-70
2022/09/03 00:09:55;;;;;;;;;;;16.00;83.50;;;;;;4994605;28;19921;-70
2022/09/03 00:12:23;;;;;;;;;;;16.10;89.90;;;;;;4989271;28;19925;-70
2022/09/03 00:14:52;;;;;;;;;;;16.00;85.60;;;;;;5010726;28;20055;-70
2022/09/03 00:17:19;;;;;;;;;;;16.00;83.90;;;;;;5011975;28;19926;-70
2022/09/03 00:19:51;;;;;;;;;;;16.00;83.90;;;;;;5010777;28;19988;-70
2022/09/03 00:22:31;;;;;;;;;;;16.00;83.80;;;;;;4975766;28;19991;-70
2022/09/03 00:24:59;;;;;;;;;;;15.90;86.40;;;;;;5012653;28;19926;-70
2022/09/03 00:27:25;;;;;;;;;;;15.90;84.60;;;;;;5010066;28;20975;-67
2022/09/03 00:29:54;;;;;;;;;;;15.90;86.60;;;;;;4994458;28;19921;-67
2022/09/03 00:32:38;;;;;;;;;;;15.80;85.10;;;;;;4992913;28;20000;-67
2022/09/03 00:35:06;;;;;;;;;;;15.70;84.50;;;;;;5001824;28;19981;-67
2022/09/03 00:37:33;;;;;;;;;;;15.80;90.50;;;;;;4986611;28;19921;-67
2022/09/03 00:39:59;;;;;;;;;;;15.70;84.60;;;;;;4994129;28;19976;-67
2022/09/03 00:42:34;;;;;;;;;;;15.60;84.70;;;;;;4992267;28;19976;-67
2022/09/03 00:45:20;;;;;;;;;;;15.70;84.70;;;;;;4982744;28;20267;-67
2022/09/03 00:47:51;;;;;;;;;;;15.60;85.40;;;;;;4993329;28;20031;-67
2022/09/03 00:50:16;;;;;;;;;;;15.50;85.50;;;;;;4986184;28;20378;-67
2022/09/03 00:52:45;;;;;;;;;;;15.50;87.30;;;;;;4974397;28;19930;-67
2022/09/03 00:55:29;;;;;;;;;;;15.50;85.40;;;;;;4993232;28;19925;-67
2022/09/03 00:58:01;;;;;;;;;;;15.50;89.10;;;;;;4985635;28;19921;-67
2022/09/03 01:00:27;;;;;;;;;;;15.40;89.70;;;;;;4993041;28;19974;-67
2022/09/03 01:03:08;;;;;;;;;;;15.40;87.50;;;;;;4974676;28;19929;-67
2022/09/03 01:05:40;;;;;;;;;;;15.30;86.20;;;;;;4993495;28;19992;-67
2022/09/03 01:08:10;;;;;;;;;;;15.30;87.00;;;;;;4995825;28;20386;-67
2022/09/03 01:10:54;;;;;;;;;;;15.30;86.70;;;;;;5009902;28;20409;-67
2022/09/03 01:13:22;;;;;;;;;;;15.20;86.50;;;;;;4991417;28;19953;-67
2022/09/03 01:16:07;;;;;;;;;;;15.20;86.70;;;;;;5002961;28;19969;-67
2022/09/03 01:18:32;;;;;;;;;;;15.20;86.90;;;;;;4992564;28;20028;-67
2022/09/03 01:20:58;;;;;;;;;;;15.20;87.00;;;;;;4994483;28;20399;-67
2022/09/03 01:23:34;;;;;;;;;;;15.10;88.50;;;;;;4992291;28;19936;-69
2022/09/03 01:26:21;;;;;;;;;;;15.10;88.40;;;;;;4993067;28;20367;-68
2022/09/03 01:29:06;;;;;;;;;;;15.10;88.00;;;;;;5009952;28;19929;-68
2022/09/03 01:31:44;;;;;;;;;;;15.10;91.20;;;;;;4984804;28;19960;-68
2022/09/03 01:34:28;;;;;;;;;;;15.10;87.90;;;;;;4990118;28;21836;-69
2022/09/03 01:37:15;;;;;;;;;;;15.00;87.30;;;;;;5007026;28;20079;-68
2022/09/03 01:39:59;;;;;;;;;;;15.00;88.50;;;;;;4990822;28;20016;-68
2022/09/03 01:42:39;;;;;;;;;;;15.00;88.50;;;;;;4991010;28;19983;-69
2022/09/03 01:45:07;;;;;;;;;;;15.00;87.80;;;;;;4984375;28;19934;-69
2022/09/03 01:47:50;;;;;;;;;;;14.90;88.30;;;;;;4990433;28;19929;-68
2022/09/03 01:50:23;;;;;;;;;;;15.00;89.30;;;;;;4986884;28;20438;-68
2022/09/03 01:52:55;;;;;;;;;;;15.00;92.30;;;;;;4982887;28;19963;-69
2022/09/03 01:55:28;;;;;;;;;;;15.00;88.20;;;;;;4993080;28;19969;-70
2022/09/03 01:58:10;;;;;;;;;;;15.00;90.90;;;;;;4993476;28;19921;-69
2022/09/03 02:00:38;;;;;;;;;;;15.00;88.00;;;;;;4983772;28;20008;-69
2022/09/03 02:03:05;;;;;;;;;;;15.00;89.10;;;;;;4993611;28;19921;-68
2022/09/03 02:05:31;;;;;;;;;;;14.90;90.00;;;;;;4990525;28;20371;-68
2022/09/03 02:08:00;;;;;;;;;;;15.00;91.70;;;;;;5009078;28;20018;-68
2022/09/03 02:10:28;;;;;;;;;;;15.00;90.10;;;;;;4991863;28;20482;-69
2022/09/03 02:12:57;;;;;;;;;;;15.00;89.30;;;;;;4992683;28;19956;-69
2022/09/03 02:15:24;;;;;;;;;;;15.00;88.60;;;;;;5010970;28;20020;-69
2022/09/03 02:17:53;;;;;;;;;;;15.00;89.80;;;;;;5006764;28;19922;-69
2022/09/03 02:20:20;;;;;;;;;;;15.00;90.00;;;;;;5009527;28;19925;-68
2022/09/03 02:22:47;;;;;;;;;;;15.00;89.00;;;;;;4991106;28;19922;-68
2022/09/03 02:25:12;;;;;;;;;;;15.10;92.40;;;;;;4984574;28;19926;-68
2022/09/03 02:27:38;;;;;;;;;;;15.10;90.80;;;;;;4993343;28;19929;-69
2022/09/03 02:30:04;;;;;;;;;;;15.00;89.60;;;;;;4993026;28;19926;-69
2022/09/03 02:32:30;;;;;;;;;;;15.00;91.90;;;;;;5009888;28;19922;-69
2022/09/03 02:34:56;;;;;;;;;;;15.10;91.20;;;;;;5010103;28;19929;-69
2022/09/03 02:37:22;;;;;;;;;;;15.00;91.00;;;;;;4992875;28;19928;-69
2022/09/03 02:39:47;;;;;;;;;;;15.00;90.00;;;;;;4991424;28;19921;-69
2022/09/03 02:42:14;;;;;;;;;;;15.10;90.10;;;;;;4989594;28;20373;-68
2022/09/03 02:44:45;;;;;;;;;;;15.00;90.00;;;;;;4992089;28;19925;-68
2022/09/03 02:47:10;;;;;;;;;;;15.00;89.00;;;;;;4970693;28;20016;-69
2022/09/03 02:49:36;;;;;;;;;;;15.10;91.20;;;;;;4991835;28;20013;-68
2022/09/03 02:52:08;;;;;;;;;;;15.10;89.60;;;;;;4988219;28;19949;-68
2022/09/03 02:54:38;;;;;;;;;;;15.20;92.40;;;;;;5045584;22;19925;-65
2022/09/03 02:57:14;;;;;;;;;;;15.20;90.20;;;;;;5053354;28;20644;-65
2022/09/03 02:59:40;;;;;;;;;;;15.20;91.50;;;;;;5052600;28;20004;-66
2022/09/03 03:02:06;;;;;;;;;;;15.20;89.20;;;;;;5038430;28;19928;-66
2022/09/03 03:04:32;;;;;;;;;;;15.20;88.50;;;;;;5038599;28;20000;-66
2022/09/03 03:06:57;;;;;;;;;;;15.20;91.50;;;;;;5039615;28;19928;-66
2022/09/03 03:09:23;;;;;;;;;;;15.20;91.20;;;;;;5057509;28;19921;-66
2022/09/03 03:11:49;;;;;;;;;;;15.20;90.10;;;;;;5066107;28;20010;-66
2022/09/03 03:14:14;;;;;;;;;;;15.20;91.40;;;;;;5055728;28;19928;-66
2022/09/03 03:16:40;;;;;;;;;;;15.20;89.50;;;;;;5066604;28;19951;-66
2022/09/03 03:19:05;;;;;;;;;;;15.20;92.60;;;;;;5039591;28;19928;-66
2022/09/03 03:21:31;;;;;;;;;;;15.20;91.40;;;;;;5055856;28;19960;-66
2022/09/03 03:23:56;;;;;;;;;;;15.10;91.80;;;;;;5055217;28;20374;-66
2022/09/03 03:26:23;;;;;;;;;;;15.10;90.60;;;;;;5056175;28;20374;-66
2022/09/03 03:28:50;;;;;;;;;;;15.10;91.90;;;;;;5067119;28;19932;-66
2022/09/03 03:31:16;;;;;;;;;;;15.00;91.00;;;;;;5052908;28;20282;-66
2022/09/03 03:33:42;;;;;;;;;;;15.00;91.90;;;;;;5058214;28;19928;-66
2022/09/03 03:36:10;;;;;;;;;;;14.90;90.90;;;;;;5053009;28;19921;-66
2022/09/03 03:38:36;;;;;;;;;;;14.90;91.00;;;;;;5057990;28;19967;-67
2022/09/03 03:41:08;;;;;;;;;;;14.90;90.60;;;;;;5052652;28;19963;-66
2022/09/03 03:43:34;;;;;;;;;;;14.90;90.80;;;;;;5052895;28;19927;-66
2022/09/03 03:45:59;;;;;;;;;;;14.80;91.10;;;;;;5055090;28;19925;-66
2022/09/03 03:48:25;;;;;;;;;;;14.80;91.10;;;;;;5053699;28;19925;-66
2022/09/03 03:50:51;;;;;;;;;;;14.80;90.80;;;;;;5045202;28;19964;-66
2022/09/03 03:53:16;;;;;;;;;;;14.70;91.20;;;;;;5053903;28;19943;-66
2022/09/03 03:55:42;;;;;;;;;;;14.70;92.20;;;;;;5054979;28;20041;-66
2022/09/03 03:58:07;;;;;;;;;;;14.60;91.70;;;;;;5055462;28;20004;-66
2022/09/03 04:00:36;;;;;;;;;;;14.60;91.60;;;;;;5037037;28;19932;-66
2022/09/03 04:03:03;;;;;;;;;;;14.50;91.60;;;;;;5064345;28;19928;-66
2022/09/03 04:05:28;;;;;;;;;;;14.60;91.50;;;;;;5054569;28;19968;-66
2022/09/03 04:07:54;;;;;;;;;;;14.50;92.40;;;;;;5037734;28;19955;-66
2022/09/03 04:10:19;;;;;;;;;;;14.60;91.90;;;;;;5054494;28;19927;-66
2022/09/03 04:12:45;;;;;;;;;;;14.50;93.10;;;;;;5051711;28;19925;-66
2022/09/03 04:15:10;;;;;;;;;;;14.50;92.10;;;;;;5048950;28;19936;-66
2022/09/03 04:17:36;;;;;;;;;;;14.50;92.60;;;;;;5051419;28;19924;-66
2022/09/03 04:20:02;;;;;;;;;;;14.40;92.30;;;;;;5052149;28;19951;-66
2022/09/03 04:22:28;;;;;;;;;;;14.40;92.80;;;;;;5050473;28;19920;-66
2022/09/03 04:24:53;;;;;;;;;;;14.40;92.90;;;;;;5053318;28;19928;-66
2022/09/03 04:27:19;;;;;;;;;;;14.30;93.50;;;;;;5052995;28;19932;-66
2022/09/03 04:29:44;;;;;;;;;;;14.30;94.10;;;;;;5051366;28;19921;-66
2022/09/03 04:34:54;;;;;;;;;;;14.20;94.10;;;;;;5048921;28;20337;-66
2022/09/03 04:37:20;;;;;;;;;;;14.20;95.30;;;;;;5048853;28;20004;-66
2022/09/03 04:39:45;;;;;;;;;;;14.10;93.80;;;;;;5043262;28;19924;-66
2022/09/03 04:42:11;;;;;;;;;;;14.10;94.10;;;;;;5055790;28;20405;-66
2022/09/03 04:44:37;;;;;;;;;;;14.10;94.50;;;;;;5048961;28;19924;-66
2022/09/03 04:47:03;;;;;;;;;;;14.10;93.70;;;;;;5046644;28;20292;-66
2022/09/03 04:49:29;;;;;;;;;;;14.00;94.70;;;;;;5052109;28;20409;-66
2022/09/03 04:51:55;;;;;;;;;;;14.00;95.60;;;;;;5051062;28;20019;-66
2022/09/03 04:54:20;;;;;;;;;;;14.00;94.40;;;;;;5050464;28;19990;-66
2022/09/03 04:56:46;;;;;;;;;;;14.00;94.70;;;;;;5050818;28;19925;-66
2022/09/03 04:59:12;;;;;;;;;;;14.00;95.40;;;;;;5056624;28;20056;-65
2022/09/03 05:01:38;;;;;;;;;;;14.00;96.90;;;;;;5032817;28;19920;-66
2022/09/03 05:04:04;;;;;;;;;;;14.00;96.70;;;;;;5049391;28;19928;-66
2022/09/03 05:06:30;;;;;;;;;;;14.00;96.40;;;;;;5050022;28;20310;-65
2022/09/03 05:08:56;;;;;;;;;;;14.00;96.20;;;;;;5052257;28;20340;-66
2022/09/03 05:11:22;;;;;;;;;;;14.00;95.90;;;;;;5046556;28;19939;-65
2022/09/03 05:13:49;;;;;;;;;;;14.00;95.80;;;;;;5049067;28;19935;-69
2022/09/03 05:16:15;;;;;;;;;;;14.00;96.00;;;;;;5056831;28;20496;-69
2022/09/03 05:18:41;;;;;;;;;;;13.90;95.40;;;;;;5048724;28;19921;-69
2022/09/03 05:21:07;;;;;;;;;;;13.90;95.90;;;;;;5049497;28;20319;-70
2022/09/03 05:23:37;;;;;;;;;;;13.90;96.00;;;;;;5051837;28;19974;-70
2022/09/03 05:26:07;;;;;;;;;;;13.90;96.80;;;;;;5032168;28;19963;-70
2022/09/03 05:28:35;;;;;;;;;;;14.00;96.60;;;;;;5049383;28;19921;-69
2022/09/03 05:31:07;;;;;;;;;;;14.00;96.70;;;;;;5051831;28;20011;-69
2022/09/03 05:33:34;;;;;;;;;;;14.00;96.30;;;;;;5051136;28;19924;-70
2022/09/03 05:36:01;;;;;;;;;;;14.00;97.00;;;;;;5052178;28;20027;-70
2022/09/03 05:38:26;;;;;;;;;;;14.10;96.20;;;;;;5052754;28;19931;-70
2022/09/03 05:40:52;;;;;;;;;;;14.10;96.60;;;;;;5061392;28;19920;-70
2022/09/03 05:43:17;;;;;;;;;;;14.20;96.70;;;;;;5050667;28;19921;-70
2022/09/03 05:45:43;;;;;;;;;;;14.20;95.70;;;;;;5049311;28;19928;-70
2022/09/03 05:48:08;;;;;;;;;;;14.30;95.80;;;;;;5049514;28;19921;-70
2022/09/03 05:50:34;;;;;;;;;;;14.40;97.00;;;;;;5048250;28;19976;-70
2022/09/03 05:52:59;;;;;;;;;;;14.90;95.30;;;;;;5049101;28;19924;-70
2022/09/03 05:55:27;;;;;;;;;;;16.00;95.20;;;;;;5031945;28;20439;-70
2022/09/03 05:57:53;;;;;;;;;;;16.80;90.70;;;;;;5047638;28;20318;-70
2022/09/03 06:00:19;;;;;;;;;;;17.60;90.50;;;;;;5050464;28;19925;-70
2022/09/03 06:02:51;;;;;;;;;;;18.20;88.40;;;;;;5047921;28;20444;-70
2022/09/03 06:05:17;;;;;;;;;;;18.60;86.00;;;;;;5047285;28;19924;-70
2022/09/03 06:07:43;;;;;;;;;;;19.30;84.20;;;;;;5055639;28;19925;-70
2022/09/03 06:10:09;;;;;;;;;;;19.20;81.30;;;;;;5049309;28;20282;-70
2022/09/03 06:12:35;;;;;;;;;;;19.10;85.20;;;;;;5049400;28;19925;-70
2022/09/03 06:15:01;;;;;;;;;;;18.60;83.30;;;;;;5045311;28;19944;-70
2022/09/03 06:17:27;;;;;;;;;;;18.10;86.00;;;;;;5032167;28;19929;-70
2022/09/03 06:19:52;;;;;;;;;;;18.40;89.20;;;;;;5053223;28;19951;-70
2022/09/03 06:22:18;;;;;;;;;;;18.90;86.90;;;;;;5052260;28;19928;-70
2022/09/03 06:24:43;;;;;;;;;;;19.60;83.50;;;;;;5050298;28;19921;-70
2022/09/03 06:27:08;;;;;;;;;;;20.30;82.90;;;;;;5048724;28;19943;-70
2022/09/03 06:29:34;;;;;;;;;;;20.50;81.90;;;;;;5050263;28;20370;-70
2022/09/03 06:32:03;;;;;;;;;;;20.60;80.50;;;;;;5049065;28;19974;-71
2022/09/03 06:34:29;;;;;;;;;;;21.00;78.70;;;;;;5041758;28;19975;-70
2022/09/03 06:36:55;;;;;;;;;;;21.20;76.00;;;;;;5047760;28;19928;-70
2022/09/03 06:39:20;;;;;;;;;;;21.70;73.90;;;;;;5049644;28;19924;-70
2022/09/03 06:41:50;;;;;;;;;;;22.10;76.40;;;;;;5050323;28;19971;-70
2022/09/03 06:44:16;;;;;;;;;;;22.50;76.40;;;;;;5051509;28;19925;-70
2022/09/03 06:46:42;;;;;;;;;;;22.90;73.20;;;;;;5046547;28;20016;-70
2022/09/03 06:49:08;;;;;;;;;;;23.10;74.50;;;;;;5049405;28;20477;-70
2022/09/03 06:51:34;;;;;;;;;;;22.80;71.70;;;;;;5049436;28;19920;-70
2022/09/03 06:54:01;;;;;;;;;;;22.70;72.50;;;;;;5050292;28;19978;-71
2022/09/03 06:56:26;;;;;;;;;;;23.30;73.90;;;;;;5056725;28;19986;-71
2022/09/03 06:58:56;;;;;;;;;;;23.30;72.00;;;;;;5057598;28;19924;-70
2022/09/03 07:01:24;;;;;;;;;;;22.90;70.40;;;;;;5053168;28;19925;-70
2022/09/03 07:03:55;;;;;;;;;;;23.30;72.00;;;;;;5046968;28;19967;-70
2022/09/03 07:06:21;;;;;;;;;;;23.50;68.80;;;;;;5048604;28;19925;-70
2022/09/03 07:08:46;;;;;;;;;;;23.80;71.60;;;;;;5048911;28;19921;-71
2022/09/03 07:11:13;;;;;;;;;;;23.90;70.20;;;;;;5049170;28;19942;-70
2022/09/03 07:13:40;;;;;;;;;;;24.10;71.70;;;;;;5050616;28;20345;-72
2022/09/03 07:16:07;;;;;;;;;;;24.50;69.60;;;;;;5046158;28;20024;-71
2022/09/03 07:18:33;;;;;;;;;;;24.30;70.30;;;;;;5030288;28;20008;-71
2022/09/03 07:21:00;;;;;;;;;;;24.10;67.50;;;;;;5048294;28;20015;-71
2022/09/03 07:23:26;;;;;;;;;;;24.30;69.30;;;;;;5047286;28;20407;-70
2022/09/03 07:25:53;;;;;;;;;;;24.10;67.70;;;;;;5049390;28;20377;-70
2022/09/03 07:28:18;;;;;;;;;;;24.20;69.00;;;;;;5062381;28;19925;-69
2022/09/03 07:30:44;;;;;;;;;;;23.90;67.00;;;;;;5044135;28;19925;-69
2022/09/03 07:33:09;;;;;;;;;;;24.20;67.70;;;;;;5048976;28;19955;-70
2022/09/03 07:35:35;;;;;;;;;;;24.60;69.20;;;;;;5049029;28;19924;-70
2022/09/03 07:38:01;;;;;;;;;;;24.00;66.10;;;;;;5050233;28;20012;-70
2022/09/03 07:40:26;;;;;;;;;;;23.90;67.50;;;;;;5048631;28;20031;-69
2022/09/03 07:42:57;;;;;;;;;;;23.70;67.10;;;;;;5047449;28;19925;-69
2022/09/03 07:45:23;;;;;;;;;;;23.30;69.50;;;;;;5032463;28;19921;-70
2022/09/03 07:47:48;;;;;;;;;;;22.50;70.90;;;;;;5051191;28;19978;-69
2022/09/03 07:50:15;;;;;;;;;;;21.60;72.30;;;;;;5053488;28;19929;-69
2022/09/03 07:52:40;;;;;;;;;;;21.40;75.00;;;;;;5032245;28;19946;-69
2022/09/03 07:55:06;;;;;;;;;;;21.00;74.40;;;;;;5051715;28;19970;-69
2022/09/03 07:57:31;;;;;;;;;;;20.60;74.00;;;;;;5044820;28;19925;-69
2022/09/03 07:59:57;;;;;;;;;;;20.30;76.10;;;;;;5043609;28;19964;-69
2022/09/03 08:02:23;;;;;;;;;;;20.20;76.00;;;;;;5050725;28;19925;-69
2022/09/03 08:04:49;;;;;;;;;;;20.30;77.40;;;;;;5059860;28;20350;-69
2022/09/03 08:07:14;;;;;;;;;;;20.20;77.20;;;;;;5063893;28;19973;-69
2022/09/03 08:09:40;;;;;;;;;;;20.00;76.70;;;;;;5053581;28;19920;-69
2022/09/03 08:12:05;;;;;;;;;;;20.20;78.40;;;;;;5050624;28;19929;-69
2022/09/03 08:14:31;;;;;;;;;;;20.10;78.60;;;;;;5051130;28;19925;-68
2022/09/03 08:16:58;;;;;;;;;;;19.90;77.10;;;;;;5042428;28;19951;-69
2022/09/03 08:19:24;;;;;;;;;;;20.00;78.20;;;;;;5052161;28;20243;-68
2022/09/03 08:21:49;;;;;;;;;;;20.00;79.10;;;;;;5051177;28;19978;-69
2022/09/03 08:24:16;;;;;;;;;;;20.00;78.30;;;;;;5051469;28;19924;-70
2022/09/03 08:26:42;;;;;;;;;;;20.10;79.40;;;;;;5052726;28;20410;-69
2022/09/03 08:29:07;;;;;;;;;;;20.10;77.40;;;;;;5054190;28;20011;-70
2022/09/03 08:31:33;;;;;;;;;;;20.10;78.90;;;;;;5046831;28;20012;-68
2022/09/03 08:34:02;;;;;;;;;;;20.30;78.60;;;;;;5039624;28;19961;-68
2022/09/03 08:36:31;;;;;;;;;;;20.40;77.00;;;;;;5042559;28;19928;-68
2022/09/03 08:39:02;;;;;;;;;;;20.40;77.00;;;;;;5043100;28;19928;-67
2022/09/03 08:41:32;;;;;;;;;;;20.50;78.80;;;;;;5052454;28;20373;-68
2022/09/03 08:44:05;;;;;;;;;;;20.50;77.20;;;;;;5054027;28;20452;-68
2022/09/03 08:46:49;;;;;;;;;;;20.70;76.60;;;;;;5052495;28;19964;-68
2022/09/03 08:49:18;;;;;;;;;;;20.80;78.60;;;;;;5050268;28;19924;-68
2022/09/03 08:51:44;;;;;;;;;;;20.80;76.30;;;;;;5053778;28;19925;-67
2022/09/03 08:54:10;;;;;;;;;;;21.10;78.40;;;;;;5045203;22;19975;-68
2022/09/03 08:56:38;;;;;;;;;;;21.10;75.30;;;;;;5002751;28;19933;-68
2022/09/03 08:59:04;;;;;;;;;;;21.10;74.90;;;;;;5013268;28;19921;-69
2022/09/03 09:01:32;;;;;;;;;;;21.20;77.80;;;;;;5028167;28;19926;-68
2022/09/03 09:04:17;;;;;;;;;;;21.40;77.20;;;;;;5026667;28;20404;-68
2022/09/03 09:06:42;;;;;;;;;;;21.40;76.80;;;;;;5011760;28;19925;-68
2022/09/03 09:09:16;;;;;;;;;;;21.50;75.90;;;;;;5011787;28;19921;-68
2022/09/03 09:11:44;;;;;;;;;;;21.50;74.60;;;;;;5024191;28;19932;-66
2022/09/03 09:14:33;;;;;;;;;;;21.60;74.20;;;;;;5010690;28;19921;-66
2022/09/03 09:16:59;;;;;;;;;;;21.60;76.80;;;;;;4999640;28;20386;-66
2022/09/03 09:19:43;;;;;;;;;;;21.60;73.40;;;;;;5011150;28;19933;-66
2022/09/03 09:22:11;;;;;;;;;;;21.70;76.40;;;;;;5011720;28;19944;-66
2022/09/03 09:24:42;;;;;;;;;;;21.70;74.10;;;;;;4992202;28;19929;-66
2022/09/03 09:27:07;;;;;;;;;;;21.60;72.40;;;;;;5007678;28;19922;-66
2022/09/03 09:29:37;;;;;;;;;;;21.60;73.50;;;;;;5026763;28;19921;-66
2022/09/03 09:32:06;;;;;;;;;;;21.70;74.50;;;;;;4993401;28;19926;-66
2022/09/03 09:34:35;;;;;;;;;;;21.90;74.30;;;;;;5011558;28;20035;-66
2022/09/03 09:37:03;;;;;;;;;;;22.20;75.30;;;;;;5011940;28;19955;-67
2022/09/03 09:39:28;;;;;;;;;;;22.20;73.20;;;;;;4986270;28;19956;-68
2022/09/03 09:42:04;;;;;;;;;;;22.10;71.80;;;;;;5011504;28;19972;-68
2022/09/03 09:44:29;;;;;;;;;;;22.20;74.70;;;;;;5010668;28;20406;-67
2022/09/03 09:47:21;;;;;;;;;;;22.30;74.20;;;;;;5008660;28;19925;-68
2022/09/03 09:49:51;;;;;;;;;;;22.40;75.30;;;;;;5005449;28;20371;-68
2022/09/03 09:52:17;;;;;;;;;;;22.50;70.40;;;;;;5004420;28;19928;-68
2022/09/03 09:54:45;;;;;;;;;;;22.50;72.40;;;;;;4996250;28;19925;-68
2022/09/03 09:57:17;;;;;;;;;;;22.60;71.50;;;;;;5010069;28;19929;-68
2022/09/03 09:59:44;;;;;;;;;;;22.70;71.20;;;;;;5009365;28;19992;-68
2022/09/03 10:02:10;;;;;;;;;;;22.70;70.50;;;;;;5020220;28;20302;-68
2022/09/03 10:04:36;;;;;;;;;;;22.80;70.70;;;;;;5000880;28;19929;-68
2022/09/03 10:07:04;;;;;;;;;;;23.00;71.60;;;;;;5011663;28;19961;-68
2022/09/03 10:09:31;;;;;;;;;;;23.10;69.90;;;;;;5008267;28;19925;-68
2022/09/03 10:12:23;;;;;;;;;;;23.20;68.90;;;;;;5010458;28;19925;-68
2022/09/03 10:14:52;;;;;;;;;;;23.20;69.00;;;;;;5006511;28;19988;-68
2022/09/03 10:17:22;;;;;;;;;;;23.30;70.80;;;;;;5011728;28;19925;-68
2022/09/03 10:20:25;;;;;;;;;;;23.30;66.80;;;;;;5009623;28;19949;-68
2022/09/03 10:22:41;;;;;;;;;;;23.40;68.30;;;;;;5002877;28;19922;-69
2022/09/03 10:25:07;;;;;;;;;;;23.50;69.60;;;;;;5002831;28;19925;-67
2022/09/03 10:27:36;;;;;;;;;;;23.60;70.20;;;;;;5010327;28;20363;-68
2022/09/03 10:30:01;;;;;;;;;;;23.60;68.20;;;;;;5007112;28;19979;-67
2022/09/03 10:32:44;;;;;;;;;;;23.70;67.20;;;;;;5007864;28;20322;-68
2022/09/03 10:35:19;;;;;;;;;;;23.80;67.40;;;;;;5009687;28;20355;-68
2022/09/03 10:37:44;;;;;;;;;;;24.00;67.90;;;;;;5015692;28;19979;-68
2022/09/03 10:40:14;;;;;;;;;;;24.10;67.50;;;;;;5011058;28;19921;-68
2022/09/03 10:42:58;;;;;;;;;;;24.10;66.80;;;;;;5010707;28;19949;-68
2022/09/03 10:45:51;;;;;;;;;;;24.20;65.70;;;;;;5006781;28;19925;-68
2022/09/03 10:48:23;;;;;;;;;;;24.20;64.20;;;;;;4993939;28;20263;-68
2022/09/03 10:51:02;;;;;;;;;;;24.10;64.00;;;;;;5005676;28;20347;-68
2022/09/03 10:53:38;;;;;;;;;;;24.10;64.50;;;;;;5007553;28;19925;-68
2022/09/03 10:56:12;;;;;;;;;;;24.10;63.90;;;;;;5008894;28;19929;-68
2022/09/03 10:58:52;;;;;;;;;;;24.10;64.30;;;;;;5010738;28;20437;-68
2022/09/03 11:01:26;;;;;;;;;;;24.20;65.40;;;;;;5005027;28;19929;-67
2022/09/03 11:04:13;;;;;;;;;;;24.40;64.30;;;;;;5024958;28;19961;-68
2022/09/03 11:06:42;;;;;;;;;;;24.40;65.30;;;;;;5007789;28;20056;-68
2022/09/03 11:09:07;;;;;;;;;;;24.60;64.60;;;;;;4992446;28;20287;-68
2022/09/03 11:11:36;;;;;;;;;;;24.70;62.90;;;;;;5014743;28;19922;-69
2022/09/03 11:14:09;;;;;;;;;;;24.80;64.60;;;;;;5002811;28;19922;-69
2022/09/03 11:16:47;;;;;;;;;;;24.70;63.90;;;;;;5002912;28;19930;-69
2022/09/03 11:19:15;;;;;;;;;;;24.80;66.40;;;;;;5005146;28;19957;-68
2022/09/03 11:21:42;;;;;;;;;;;24.80;64.00;;;;;;5012167;28;19964;-69
2022/09/03 11:24:08;;;;;;;;;;;24.80;63.80;;;;;;5012174;28;20047;-69
2022/09/03 11:26:34;;;;;;;;;;;24.80;62.30;;;;;;5014167;28;20000;-69
2022/09/03 11:29:02;;;;;;;;;;;24.70;63.20;;;;;;5011339;28;19921;-69
2022/09/03 11:31:32;;;;;;;;;;;24.90;61.70;;;;;;5011936;28;19928;-69
2022/09/03 11:33:57;;;;;;;;;;;24.80;60.20;;;;;;4996683;28;20048;-69
2022/09/03 11:36:27;;;;;;;;;;;24.80;61.00;;;;;;4995106;28;20007;-69
2022/09/03 11:38:53;;;;;;;;;;;24.70;60.60;;;;;;5007459;28;19960;-70
2022/09/03 11:41:34;;;;;;;;;;;24.80;61.00;;;;;;5010059;28;19969;-69
2022/09/03 11:44:10;;;;;;;;;;;24.90;60.80;;;;;;5013836;28;19926;-69
2022/09/03 11:46:38;;;;;;;;;;;24.90;60.40;;;;;;5012284;28;19925;-69
2022/09/03 11:49:12;;;;;;;;;;;24.80;60.60;;;;;;5013128;28;19921;-70
2022/09/03 11:51:40;;;;;;;;;;;24.70;58.40;;;;;;5008751;28;19922;-69
2022/09/03 11:54:06;;;;;;;;;;;24.70;62.60;;;;;;5011377;28;19936;-70
2022/09/03 11:56:32;;;;;;;;;;;24.90;61.40;;;;;;5005882;28;19937;-69
2022/09/03 11:59:16;;;;;;;;;;;25.00;63.50;;;;;;5002794;28;20406;-69
2022/09/03 12:01:43;;;;;;;;;;;25.20;64.60;;;;;;5011347;28;20280;-69
2022/09/03 12:04:12;;;;;;;;;;;25.30;61.00;;;;;;5006338;28;19945;-69
2022/09/03 12:06:48;;;;;;;;;;;25.40;60.90;;;;;;5013465;28;19958;-69
2022/09/03 12:09:32;;;;;;;;;;;25.40;60.40;;;;;;5013651;28;19922;-69
2022/09/03 12:12:00;;;;;;;;;;;25.40;60.60;;;;;;4994579;28;20024;-69
2022/09/03 12:14:45;;;;;;;;;;;25.40;63.50;;;;;;5004518;28;19937;-69
2022/09/03 12:17:18;;;;;;;;;;;25.50;65.00;;;;;;4994002;28;19932;-70
2022/09/03 12:19:46;;;;;;;;;;;25.40;61.10;;;;;;5011987;28;19925;-69
2022/09/03 12:22:16;;;;;;;;;;;25.30;58.80;;;;;;5005025;28;19960;-70
2022/09/03 12:24:43;;;;;;;;;;;25.40;59.20;;;;;;5008638;28;19921;-70
2022/09/03 12:27:23;;;;;;;;;;;25.40;60.70;;;;;;4995566;28;20052;-70
2022/09/03 12:29:56;;;;;;;;;;;25.40;59.20;;;;;;5014772;28;19948;-69
2022/09/03 12:32:23;;;;;;;;;;;25.50;64.00;;;;;;5010719;28;19922;-69
2022/09/03 12:34:48;;;;;;;;;;;25.40;59.50;;;;;;5014502;28;19928;-69
2022/09/03 12:37:22;;;;;;;;;;;25.60;61.20;;;;;;5011526;28;19926;-69
2022/09/03 12:39:55;;;;;;;;;;;25.60;57.80;;;;;;5012707;28;19922;-69
2022/09/03 12:42:28;;;;;;;;;;;25.60;58.90;;;;;;5002198;28;19968;-69
2022/09/03 12:44:54;;;;;;;;;;;25.70;58.50;;;;;;5011999;28;20344;-69
2022/09/03 12:47:21;;;;;;;;;;;25.80;60.90;;;;;;5008295;28;19929;-69
2022/09/03 12:49:48;;;;;;;;;;;25.70;59.10;;;;;;5009697;28;19921;-70
2022/09/03 12:52:19;;;;;;;;;;;25.70;58.20;;;;;;5007224;28;19921;-69
2022/09/03 12:54:48;;;;;;;;;;;25.80;61.60;;;;;;5017671;28;20018;-70
2022/09/03 12:57:19;;;;;;;;;;;25.70;60.80;;;;;;5012125;28;20015;-69
2022/09/03 12:59:46;;;;;;;;;;;25.60;57.90;;;;;;5012433;28;19925;-69
2022/09/03 13:02:14;;;;;;;;;;;25.70;59.40;;;;;;5011424;28;19922;-69
2022/09/03 13:04:40;;;;;;;;;;;25.60;58.20;;;;;;5013471;28;20021;-69
2022/09/03 13:07:10;;;;;;;;;;;25.70;60.50;;;;;;5012320;28;19933;-69
2022/09/03 13:09:36;;;;;;;;;;;25.80;60.80;;;;;;5010770;28;19926;-69
2022/09/03 13:12:05;;;;;;;;;;;25.90;64.70;;;;;;5014426;28;19921;-69
2022/09/03 13:14:46;;;;;;;;;;;25.90;57.50;;;;;;5006455;28;19925;-69
2022/09/03 13:17:18;;;;;;;;;;;26.00;62.80;;;;;;5000045;28;19936;-69
2022/09/03 13:19:56;;;;;;;;;;;25.90;57.60;;;;;;5005556;28;19922;-69
2022/09/03 13:22:40;;;;;;;;;;;25.90;59.10;;;;;;5011088;28;20303;-69
2022/09/03 13:25:24;;;;;;;;;;;25.90;57.90;;;;;;5011491;28;20411;-70
2022/09/03 13:28:09;;;;;;;;;;;26.00;57.90;;;;;;5021216;28;20000;-69
2022/09/03 13:30:45;;;;;;;;;;;26.00;59.00;;;;;;5010944;28;19921;-69
2022/09/03 13:33:17;;;;;;;;;;;25.90;57.50;;;;;;5006511;28;20028;-69
2022/09/03 13:36:08;;;;;;;;;;;25.80;57.90;;;;;;4993622;28;19933;-68
2022/09/03 13:38:38;;;;;;;;;;;25.60;57.00;;;;;;4994397;28;20346;-70
2022/09/03 13:41:18;;;;;;;;;;;25.70;57.40;;;;;;4993742;28;19928;-69
2022/09/03 13:43:47;;;;;;;;;;;25.70;57.30;;;;;;4992410;28;20386;-70
2022/09/03 13:46:12;;;;;;;;;;;25.80;57.10;;;;;;5010329;28;19925;-70
2022/09/03 13:51:26;;;;;;;;;;;26.00;59.40;;;;;;5012146;28;19926;-70
2022/09/03 13:54:25;;;;;;;;;;;26.00;62.00;;;;;;5005493;28;20360;-69
2022/09/03 13:56:53;;;;;;;;;;;26.10;57.70;;;;;;4974355;28;19925;-69
2022/09/03 13:59:24;;;;;;;;;;;26.10;60.20;;;;;;5011775;28;20282;-70
2022/09/03 14:02:04;;;;;;;;;;;26.20;58.90;;;;;;5009407;28;19964;-69
2022/09/03 14:04:41;;;;;;;;;;;26.30;58.10;;;;;;5012498;28;20375;-69
2022/09/03 14:07:10;;;;;;;;;;;26.40;63.80;;;;;;5012548;28;20318;-68
2022/09/03 14:09:50;;;;;;;;;;;26.50;63.10;;;;;;5012834;28;19929;-69
2022/09/03 14:12:23;;;;;;;;;;;26.30;57.50;;;;;;5003088;28;19926;-69
2022/09/03 14:15:08;;;;;;;;;;;26.50;58.30;;;;;;4993071;28;19925;-70
2022/09/03 14:17:45;;;;;;;;;;;26.50;57.00;;;;;;4993017;28;19929;-71
2022/09/03 14:20:17;;;;;;;;;;;26.40;58.80;;;;;;5008565;28;19921;-70
2022/09/03 14:22:47;;;;;;;;;;;26.40;55.30;;;;;;5011202;28;20418;-69
2022/09/03 14:25:13;;;;;;;;;;;;;;;;;;5005259;28;20319;-69
2022/09/03 14:27:38;;;;;;;;;;;26.50;56.70;;;;;;4991632;28;19976;-69
2022/09/03 14:30:06;;;;;;;;;;;26.40;59.70;;;;;;4991248;28;20004;-70
2022/09/03 14:32:43;;;;;;;;;;;26.40;56.00;;;;;;5006900;28;19922;-69
2022/09/03 14:35:09;;;;;;;;;;;26.30;56.70;;;;;;4994430;28;19928;-69
2022/09/03 14:37:40;;;;;;;;;;;26.10;55.50;;;;;;4994449;28;20012;-69
2022/09/03 14:40:08;;;;;;;;;;;26.10;56.50;;;;;;5012386;28;20290;-69